createdAt,value
2022-12-06T00:02:47.543Z,7.80
2022-12-06T00:06:52.625Z,7.93
2022-12-06T00:10:53.706Z,9.17
2022-12-06T00:14:54.807Z,9.97
2022-12-06T00:18:57.303Z,9.30
2022-12-06T00:22:58.559Z,9.60
2022-12-06T00:27:01.142Z,10.40
2022-12-06T00:31:05.493Z,9.83
2022-12-06T00:35:06.977Z,10.10
2022-12-06T00:39:10.904Z,8.60
2022-12-06T00:43:12.118Z,9.00
2022-12-06T00:47:13.506Z,8.20
2022-12-06T00:51:16.281Z,8.60
2022-12-06T00:55:17.471Z,8.50
2022-12-06T00:59:18.566Z,8.87
2022-12-06T01:03:20.496Z,8.53
2022-12-06T01:07:21.750Z,8.37
2022-12-06T01:11:23.452Z,9.70
2022-12-06T01:15:24.507Z,8.93
2022-12-06T01:19:25.788Z,8.43
2022-12-06T01:23:26.945Z,7.53
2022-12-06T01:27:28.019Z,10.80
2022-12-06T01:31:35.534Z,10.03
2022-12-06T01:35:32.161Z,8.70
2022-12-06T01:39:33.315Z,7.10
2022-12-06T01:43:40.716Z,8.27
2022-12-06T01:47:43.292Z,6.90
2022-12-06T01:52:03.090Z,8.30
2022-12-06T01:56:04.829Z,7.20
2022-12-06T02:00:06.840Z,7.47
2022-12-06T02:04:08.516Z,6.90
2022-12-06T02:08:11.332Z,6.20
2022-12-06T02:12:14.336Z,7.00
2022-12-06T02:16:35.985Z,6.80
2022-12-06T02:20:44.013Z,5.87
2022-12-06T02:25:00.603Z,6.23
2022-12-06T02:29:22.100Z,6.13
2022-12-06T02:33:36.134Z,6.00
2022-12-06T02:37:59.197Z,5.93
2022-12-06T02:42:04.047Z,4.97
2022-12-06T02:46:07.024Z,5.63
2022-12-06T02:50:11.680Z,5.40
2022-12-06T02:54:13.365Z,6.37
2022-12-06T02:58:14.442Z,5.17
2022-12-06T03:02:15.761Z,5.33
2022-12-06T03:06:23.638Z,6.27
2022-12-06T03:10:28.558Z,5.70
2022-12-06T03:14:42.224Z,6.93
2022-12-06T03:19:02.306Z,5.53
2022-12-06T03:23:06.351Z,6.40
2022-12-06T03:27:11.214Z,5.40
2022-12-06T03:31:13.925Z,5.40
2022-12-06T03:35:18.862Z,6.10
2022-12-06T03:39:32.870Z,6.03
2022-12-06T03:43:34.157Z,4.77
2022-12-06T03:48:01.949Z,4.60
2022-12-06T03:52:03.919Z,5.63
2022-12-06T03:56:05.469Z,5.10
2022-12-06T04:00:07.619Z,7.00
2022-12-06T04:04:09.814Z,6.00
2022-12-06T04:08:11.062Z,6.00
2022-12-06T04:12:30.656Z,5.30
2022-12-06T04:16:50.200Z,5.33
2022-12-06T04:21:18.759Z,6.23
2022-12-06T04:25:19.976Z,6.87
2022-12-06T04:29:39.280Z,5.83
2022-12-06T04:33:58.755Z,6.33
2022-12-06T04:38:18.570Z,5.90
2022-12-06T04:42:37.980Z,6.23
2022-12-06T04:46:39.285Z,7.47
2022-12-06T04:50:42.256Z,5.30
2022-12-06T04:54:43.413Z,5.90
2022-12-06T04:58:44.612Z,5.40
2022-12-06T05:02:45.778Z,5.83
2022-12-06T05:06:47.754Z,5.07
2022-12-06T05:10:50.019Z,5.37
2022-12-06T05:14:51.100Z,6.73
2022-12-06T05:18:52.289Z,11.27
2022-12-06T05:22:53.359Z,7.07
2022-12-06T05:26:54.514Z,5.93
2022-12-06T05:30:55.976Z,5.57
2022-12-06T05:34:57.046Z,5.83
2022-12-06T05:38:58.428Z,7.37
2022-12-06T05:42:59.618Z,7.20
2022-12-06T05:47:00.904Z,7.10
2022-12-06T05:51:01.965Z,5.73
2022-12-06T05:55:03.354Z,7.40
2022-12-06T05:59:04.500Z,7.90
2022-12-06T06:03:06.297Z,6.33
2022-12-06T06:07:07.484Z,6.07
2022-12-06T06:11:08.538Z,8.00
2022-12-06T06:15:11.861Z,6.23
2022-12-06T06:19:13.252Z,8.17
2022-12-06T06:23:14.485Z,7.33
2022-12-06T06:27:15.651Z,6.83
2022-12-06T06:31:16.830Z,7.83
2022-12-06T06:35:18.155Z,7.20
2022-12-06T06:39:19.492Z,8.13
2022-12-06T06:43:20.778Z,7.13
2022-12-06T06:47:22.747Z,9.37
2022-12-06T06:51:23.806Z,7.77
2022-12-06T06:55:24.882Z,9.13
2022-12-06T06:59:25.964Z,6.90
2022-12-06T07:03:27.855Z,8.17
2022-12-06T07:07:28.918Z,7.40
2022-12-06T07:11:30.095Z,6.90
2022-12-06T07:15:31.345Z,6.70
2022-12-06T07:19:32.580Z,7.10
2022-12-06T07:23:35.092Z,8.33
2022-12-06T07:27:36.760Z,7.97
2022-12-06T07:31:39.617Z,8.87
2022-12-06T07:36:10.983Z,8.17
2022-12-06T07:39:43.786Z,7.47
2022-12-06T07:44:03.143Z,7.37
2022-12-06T07:48:04.453Z,8.40
2022-12-06T07:52:05.542Z,6.83
2022-12-06T07:56:07.210Z,6.30
2022-12-06T08:00:10.430Z,7.73
2022-12-06T08:04:11.680Z,7.10
2022-12-06T08:08:12.915Z,6.77
2022-12-06T08:12:14.366Z,7.30
2022-12-06T08:16:16.658Z,9.50
2022-12-06T08:20:17.809Z,5.30
2022-12-06T08:24:18.903Z,7.17
2022-12-06T08:28:20.050Z,6.30
2022-12-06T08:32:21.239Z,8.10
2022-12-06T08:36:23.388Z,7.00
2022-12-06T08:40:24.470Z,6.90
2022-12-06T08:44:27.021Z,8.87
2022-12-06T08:48:28.116Z,11.10
2022-12-06T08:52:29.173Z,7.07
2022-12-06T08:56:30.341Z,12.80
2022-12-06T09:00:31.568Z,8.00
2022-12-06T09:04:32.811Z,11.30
2022-12-06T09:08:34.834Z,12.37
2022-12-06T09:12:35.904Z,8.53
2022-12-06T09:16:37.172Z,9.33
2022-12-06T09:20:41.890Z,9.10
2022-12-06T09:24:42.958Z,9.07
2022-12-06T09:28:48.654Z,6.17
2022-12-06T09:32:49.921Z,9.10
2022-12-06T09:36:54.880Z,6.33
2022-12-06T09:40:59.741Z,6.30
2022-12-06T09:45:04.625Z,7.27
2022-12-06T09:49:21.997Z,6.33
2022-12-06T09:53:35.482Z,5.47
2022-12-06T09:57:55.580Z,6.07
2022-12-06T10:02:20.739Z,6.57
2022-12-06T10:06:24.467Z,6.30
2022-12-06T10:10:38.333Z,8.67
2022-12-06T10:15:04.324Z,9.20
2022-12-06T10:19:14.812Z,7.77
2022-12-06T10:23:22.555Z,6.37
2022-12-06T10:27:38.706Z,7.93
2022-12-06T10:31:46.658Z,7.13
2022-12-06T10:35:53.866Z,6.60
2022-12-06T10:40:13.529Z,7.40
2022-12-06T10:44:25.099Z,9.13
2022-12-06T10:48:51.187Z,9.00
2022-12-06T10:53:01.512Z,7.73
2022-12-06T10:57:02.836Z,8.20
2022-12-06T11:01:14.118Z,8.80
2022-12-06T11:05:25.192Z,8.93
2022-12-06T11:09:41.309Z,10.43
2022-12-06T11:13:49.297Z,7.00
2022-12-06T11:18:02.655Z,6.57
2022-12-06T11:22:40.416Z,7.27
2022-12-06T11:26:48.395Z,10.33
2022-12-06T11:30:52.086Z,8.00
2022-12-06T11:34:56.175Z,7.73
2022-12-06T11:38:57.802Z,7.80
2022-12-06T11:43:01.889Z,13.30
2022-12-06T11:47:04.940Z,11.10
2022-12-06T11:51:12.853Z,9.57
2022-12-06T11:55:17.737Z,9.97
2022-12-06T11:59:30.846Z,7.97
2022-12-06T12:03:34.520Z,6.57
2022-12-06T12:07:39.587Z,7.80
2022-12-06T12:11:41.336Z,7.80
2022-12-06T12:15:52.502Z,7.50
2022-12-06T12:20:00.519Z,7.63
2022-12-06T12:24:02.795Z,7.43
2022-12-06T12:28:16.482Z,8.03
2022-12-06T12:32:17.776Z,8.03
2022-12-06T12:36:28.438Z,7.23
2022-12-06T12:40:42.218Z,16.07
2022-12-06T12:44:45.198Z,8.20
2022-12-06T12:48:48.577Z,7.27
2022-12-06T12:52:50.767Z,6.83
2022-12-06T12:56:53.330Z,7.80
2022-12-06T13:00:58.169Z,6.80
2022-12-06T13:09:08.519Z,6.93
2022-12-06T13:13:18.993Z,6.30
2022-12-06T13:17:23.864Z,6.30
2022-12-06T13:21:37.267Z,7.90
2022-12-06T13:25:38.644Z,6.80
2022-12-06T13:29:59.103Z,6.17
2022-12-06T13:34:04.303Z,7.23
2022-12-06T13:38:26.331Z,6.20
2022-12-06T13:42:40.308Z,8.50
2022-12-06T13:46:41.400Z,9.17
2022-12-06T13:50:46.365Z,6.33
2022-12-06T13:54:47.536Z,5.63
2022-12-06T13:58:54.712Z,6.40
2022-12-06T14:03:04.445Z,6.80
2022-12-06T14:11:16.605Z,6.53
2022-12-06T14:15:18.752Z,7.00
2022-12-06T14:19:23.645Z,6.40
2022-12-06T14:23:31.526Z,6.83
2022-12-06T14:27:35.810Z,6.33
2022-12-06T14:31:38.843Z,9.67
2022-12-06T14:35:40.188Z,8.00
2022-12-06T14:39:45.145Z,6.63
2022-12-06T14:43:46.734Z,5.70
2022-12-06T14:47:48.598Z,7.90
2022-12-06T14:51:50.156Z,6.37
2022-12-06T14:56:04.037Z,5.60
2022-12-06T15:00:25.739Z,9.90
2022-12-06T15:04:27.264Z,8.90
2022-12-06T15:08:31.841Z,5.87
2022-12-06T15:12:53.378Z,6.00
2022-12-06T15:17:03.941Z,6.63
2022-12-06T15:21:13.720Z,6.00
2022-12-06T15:25:15.031Z,5.43
2022-12-06T15:29:17.007Z,9.20
2022-12-06T15:33:20.574Z,7.23
2022-12-06T15:37:39.168Z,8.10
2022-12-06T15:41:27.146Z,6.33
2022-12-06T15:45:28.325Z,8.47
2022-12-06T15:49:29.404Z,7.20
2022-12-06T15:53:31.019Z,8.30
2022-12-06T15:57:32.191Z,8.40
2022-12-06T16:01:41.892Z,8.30
2022-12-06T16:05:40.880Z,5.97
2022-12-06T16:09:42.123Z,8.40
2022-12-06T16:13:43.396Z,11.20
2022-12-06T16:17:44.454Z,11.83
2022-12-06T16:21:54.566Z,11.37
2022-12-06T16:25:55.852Z,10.10
2022-12-06T16:29:57.006Z,8.33
2022-12-06T16:33:58.566Z,8.50
2022-12-06T16:37:59.789Z,8.00
2022-12-06T16:42:02.658Z,8.63
2022-12-06T16:46:28.174Z,8.67
2022-12-06T16:50:29.467Z,8.60
2022-12-06T16:54:30.707Z,7.63
2022-12-06T16:58:31.873Z,10.93
2022-12-06T17:02:33.267Z,7.50
2022-12-06T17:06:34.910Z,10.37
2022-12-06T17:10:35.958Z,9.87
2022-12-06T17:14:38.031Z,8.93
2022-12-06T17:18:39.086Z,11.70
2022-12-06T17:22:41.052Z,10.73
2022-12-06T17:26:42.209Z,8.03
2022-12-06T17:30:47.805Z,9.33
2022-12-06T17:34:46.453Z,10.07
2022-12-06T17:38:47.624Z,10.03
2022-12-06T17:43:00.581Z,10.93
2022-12-06T17:47:02.139Z,9.17
2022-12-06T17:51:04.691Z,7.03
2022-12-06T17:55:06.042Z,9.60
2022-12-06T17:59:13.900Z,8.90
2022-12-06T18:03:15.224Z,10.70
2022-12-06T18:07:17.161Z,6.97
2022-12-06T18:11:19.199Z,7.90
2022-12-06T18:15:38.218Z,9.07
2022-12-06T18:19:40.148Z,12.83
2022-12-06T18:24:12.820Z,10.90
2022-12-06T18:27:45.250Z,10.80
2022-12-06T18:31:47.103Z,9.90
2022-12-06T18:35:52.612Z,8.83
2022-12-06T18:39:55.046Z,9.43
2022-12-06T18:44:02.089Z,11.17
2022-12-06T18:48:03.270Z,8.83
2022-12-06T18:52:04.518Z,10.60
2022-12-06T18:56:11.916Z,11.40
2022-12-06T19:00:13.945Z,12.17
2022-12-06T19:04:17.113Z,7.77
2022-12-06T19:08:18.254Z,11.03
2022-12-06T19:12:19.391Z,10.23
2022-12-06T19:16:23.051Z,12.97
2022-12-06T19:20:24.476Z,11.20
2022-12-06T19:24:26.076Z,10.47
2022-12-06T19:28:28.937Z,12.00
2022-12-06T19:32:30.120Z,11.60
2022-12-06T19:36:32.321Z,10.03
2022-12-06T19:40:33.532Z,9.40
2022-12-06T19:44:34.713Z,11.60
2022-12-06T19:48:35.863Z,10.93
2022-12-06T19:52:37.218Z,10.37
2022-12-06T19:57:04.023Z,10.97
2022-12-06T20:01:40.854Z,11.23
2022-12-06T20:06:05.398Z,11.30
2022-12-06T20:10:07.781Z,11.53
2022-12-06T20:14:17.047Z,13.63
2022-12-06T20:18:18.345Z,12.27
2022-12-06T20:22:21.915Z,12.83
2022-12-06T20:26:23.263Z,11.97
2022-12-06T20:30:24.564Z,12.13
2022-12-06T20:34:28.531Z,14.43
2022-12-06T20:38:29.694Z,14.67
2022-12-06T20:42:32.141Z,15.87
2022-12-06T20:46:33.379Z,15.20
2022-12-06T20:50:34.547Z,21.40
2022-12-06T20:54:41.167Z,18.10
2022-12-06T20:58:43.419Z,14.20
2022-12-06T21:02:44.673Z,16.70
2022-12-06T21:06:45.893Z,14.70
2022-12-06T21:11:21.161Z,16.33
2022-12-06T21:14:53.870Z,15.83
2022-12-06T21:19:06.956Z,14.73
2022-12-06T21:23:08.140Z,14.70
2022-12-06T21:27:09.301Z,17.87
2022-12-06T21:31:10.552Z,15.47
2022-12-06T21:35:11.733Z,15.90
2022-12-06T21:39:14.493Z,15.63
2022-12-06T21:43:15.651Z,17.43
2022-12-06T21:47:17.256Z,14.90
2022-12-06T21:51:19.257Z,17.53
2022-12-06T21:55:21.024Z,18.33
2022-12-06T21:59:24.201Z,15.20
2022-12-06T22:03:25.595Z,16.00
2022-12-06T22:07:26.827Z,14.70
2022-12-06T22:11:29.315Z,13.67
2022-12-06T22:15:31.773Z,12.53
2022-12-06T22:19:32.949Z,13.67
2022-12-06T22:23:34.526Z,15.10
2022-12-06T22:27:35.649Z,15.70
2022-12-06T22:31:36.947Z,16.20
2022-12-06T22:35:38.156Z,16.30
2022-12-06T22:39:39.316Z,14.10
2022-12-06T22:43:40.585Z,19.77
2022-12-06T22:47:41.763Z,22.63
2022-12-06T22:51:42.844Z,21.50
2022-12-06T22:55:43.986Z,15.97
2022-12-06T22:59:45.674Z,13.23
2022-12-06T23:03:48.418Z,12.40
2022-12-06T23:07:49.714Z,13.27
2022-12-06T23:11:50.893Z,14.10
2022-12-06T23:16:01.073Z,16.10
2022-12-06T23:20:03.543Z,15.47
2022-12-06T23:24:08.843Z,14.87
2022-12-06T23:28:10.023Z,14.30
2022-12-06T23:32:11.176Z,14.97
2022-12-06T23:36:16.204Z,16.10
2022-12-06T23:40:17.380Z,12.37
2022-12-06T23:44:18.458Z,17.00
2022-12-06T23:48:19.546Z,15.50
2022-12-06T23:52:20.616Z,14.63
2022-12-06T23:56:22.289Z,17.07
